createdAt,value
2019-03-26T00:01:01.232Z,19.07
2019-03-26T00:03:32.907Z,20.47
2019-03-26T00:06:04.541Z,20.80
2019-03-26T00:08:36.338Z,23.17
2019-03-26T00:11:07.998Z,25.63
2019-03-26T00:13:39.646Z,22.83
2019-03-26T00:16:11.288Z,20.97
2019-03-26T00:18:42.868Z,22.00
2019-03-26T00:21:14.368Z,26.17
2019-03-26T00:23:45.866Z,21.93
2019-03-26T00:26:17.368Z,23.50
2019-03-26T00:28:48.878Z,23.30
2019-03-26T00:31:20.608Z,22.80
2019-03-26T00:33:52.512Z,19.30
2019-03-26T00:36:24.085Z,18.47
2019-03-26T00:38:55.632Z,18.40
2019-03-26T00:41:27.139Z,26.43
2019-03-26T00:43:58.809Z,26.57
2019-03-26T00:46:30.381Z,17.30
2019-03-26T00:49:02.255Z,26.07
2019-03-26T00:51:33.706Z,24.97
2019-03-26T00:54:05.457Z,24.70
2019-03-26T00:56:36.999Z,21.47
2019-03-26T00:59:08.843Z,23.50
2019-03-26T01:01:41.568Z,20.17
2019-03-26T01:04:13.239Z,22.90
2019-03-26T01:06:44.826Z,17.40
2019-03-26T01:09:16.524Z,22.13
2019-03-26T01:11:51.358Z,24.73
2019-03-26T01:14:22.881Z,32.03
2019-03-26T01:16:54.485Z,22.90
2019-03-26T01:19:26.125Z,22.47
2019-03-26T01:21:57.737Z,26.13
2019-03-26T01:24:29.296Z,21.27
2019-03-26T01:27:00.953Z,17.97
2019-03-26T01:29:32.594Z,22.20
2019-03-26T01:32:04.289Z,19.17
2019-03-26T01:34:45.508Z,24.13
2019-03-26T01:37:09.284Z,25.63
2019-03-26T01:39:40.808Z,18.73
2019-03-26T01:42:12.517Z,21.93
2019-03-26T01:44:44.060Z,23.50
2019-03-26T01:47:15.547Z,21.10
2019-03-26T01:49:47.089Z,20.73
2019-03-26T01:52:18.606Z,18.07
2019-03-26T01:54:50.283Z,15.60
2019-03-26T01:57:21.843Z,22.80
2019-03-26T01:59:53.376Z,21.63
2019-03-26T02:02:24.887Z,27.00
2019-03-26T02:05:00.317Z,28.77
2019-03-26T02:07:29.719Z,26.10
2019-03-26T02:10:01.377Z,21.10
2019-03-26T02:12:34.080Z,24.27
2019-03-26T02:15:06.371Z,17.97
2019-03-26T02:17:38.027Z,18.53
2019-03-26T02:20:09.876Z,22.90
2019-03-26T02:22:41.410Z,13.63
2019-03-26T02:25:13.880Z,22.67
2019-03-26T02:27:45.367Z,19.90
2019-03-26T02:30:17.017Z,25.00
2019-03-26T02:32:48.560Z,17.77
2019-03-26T02:35:20.261Z,16.10
2019-03-26T02:37:51.972Z,15.60
2019-03-26T02:40:23.502Z,13.90
2019-03-26T02:42:55.104Z,17.10
2019-03-26T02:45:26.925Z,14.13
2019-03-26T02:47:58.499Z,16.97
2019-03-26T02:50:30.134Z,15.00
2019-03-26T02:53:01.837Z,18.97
2019-03-26T02:55:34.480Z,17.07
2019-03-26T02:58:05.995Z,19.87
2019-03-26T03:00:37.759Z,20.83
2019-03-26T03:03:09.393Z,20.00
2019-03-26T03:05:41.149Z,19.90
2019-03-26T03:08:12.633Z,29.60
2019-03-26T03:10:44.884Z,22.60
2019-03-26T03:13:16.535Z,19.87
2019-03-26T03:15:48.169Z,21.67
2019-03-26T03:18:19.619Z,17.47
2019-03-26T03:20:51.297Z,25.40
2019-03-26T03:23:22.880Z,23.27
2019-03-26T03:25:54.384Z,32.37
2019-03-26T03:28:25.966Z,30.97
2019-03-26T03:30:57.600Z,34.80
2019-03-26T03:33:29.179Z,33.10
2019-03-26T03:36:00.815Z,28.73
2019-03-26T03:38:32.327Z,34.50
2019-03-26T03:41:04.283Z,32.63
2019-03-26T03:43:35.761Z,32.23
2019-03-26T03:46:08.411Z,39.80
2019-03-26T03:48:40.282Z,36.13
2019-03-26T03:51:14.414Z,31.53
2019-03-26T03:53:46.456Z,39.93
2019-03-26T03:56:20.330Z,41.00
2019-03-26T03:58:53.025Z,35.57
2019-03-26T04:01:24.689Z,34.97
2019-03-26T04:03:56.197Z,35.70
2019-03-26T04:06:27.883Z,31.13
2019-03-26T04:09:00.554Z,30.50
2019-03-26T04:11:32.277Z,27.47
2019-03-26T04:14:03.857Z,28.37
2019-03-26T04:16:35.848Z,25.10
2019-03-26T04:19:07.417Z,27.63
2019-03-26T04:21:39.248Z,28.40
2019-03-26T04:24:10.822Z,22.33
2019-03-26T04:26:42.869Z,27.53
2019-03-26T04:29:14.385Z,30.50
2019-03-26T04:31:46.152Z,23.97
2019-03-26T04:34:17.837Z,28.40
2019-03-26T04:36:49.547Z,31.13
2019-03-26T04:39:20.995Z,32.37
2019-03-26T04:41:52.552Z,25.90
2019-03-26T04:44:24.657Z,22.87
2019-03-26T04:46:57.235Z,23.63
2019-03-26T04:49:29.355Z,22.97
2019-03-26T04:52:00.973Z,24.87
2019-03-26T04:54:33.099Z,22.13
2019-03-26T04:57:05.818Z,24.27
2019-03-26T04:59:37.996Z,22.47
2019-03-26T05:02:11.020Z,22.40
2019-03-26T05:04:42.677Z,29.83
2019-03-26T05:07:14.401Z,31.73
2019-03-26T05:12:38.203Z,19.37
2019-03-26T05:15:10.250Z,19.23
2019-03-26T05:17:41.963Z,23.10
2019-03-26T05:20:13.920Z,22.17
2019-03-26T05:22:46.539Z,18.97
2019-03-26T05:25:18.194Z,14.97
2019-03-26T05:27:50.036Z,18.17
2019-03-26T05:30:21.746Z,20.33
2019-03-26T05:32:54.380Z,21.17
2019-03-26T05:35:26.201Z,21.23
2019-03-26T05:37:57.898Z,22.97
2019-03-26T05:40:29.648Z,21.77
2019-03-26T05:43:01.361Z,15.23
2019-03-26T05:45:42.467Z,16.03
2019-03-26T05:48:14.241Z,16.97
2019-03-26T05:50:45.851Z,17.20
2019-03-26T05:53:19.211Z,11.97
2019-03-26T05:55:51.120Z,16.43
2019-03-26T05:58:23.023Z,12.80
2019-03-26T06:00:54.723Z,13.30
2019-03-26T06:03:26.383Z,11.93
2019-03-26T06:05:58.150Z,13.30
2019-03-26T06:08:29.903Z,12.50
2019-03-26T06:11:13.612Z,13.00
2019-03-26T06:13:59.791Z,13.20
2019-03-26T06:16:38.269Z,12.40
2019-03-26T06:19:07.033Z,13.90
2019-03-26T06:21:40.914Z,10.60
2019-03-26T06:24:13.642Z,14.63
2019-03-26T06:26:46.246Z,14.87
2019-03-26T06:29:25.282Z,12.63
2019-03-26T06:31:57.501Z,11.97
2019-03-26T06:34:29.690Z,11.83
2019-03-26T06:37:17.846Z,11.47
2019-03-26T06:43:14.933Z,11.07
2019-03-26T06:46:03.838Z,13.97
2019-03-26T06:48:40.365Z,21.60
2019-03-26T06:51:17.585Z,11.63
2019-03-26T06:53:55.879Z,13.70
2019-03-26T06:56:45.788Z,9.67
2019-03-26T06:59:31.399Z,11.40
2019-03-26T07:02:03.910Z,9.57
2019-03-26T07:04:37.313Z,11.53
2019-03-26T07:07:32.182Z,15.20
2019-03-26T07:10:07.572Z,16.97
2019-03-26T07:12:47.566Z,9.77
2019-03-26T07:15:47.668Z,11.73
2019-03-26T07:18:45.983Z,14.30
2019-03-26T07:21:18.012Z,10.10
2019-03-26T07:23:50.281Z,10.83
2019-03-26T07:27:01.664Z,7.57
2019-03-26T07:29:39.880Z,10.27
2019-03-26T07:32:12.096Z,9.73
2019-03-26T07:34:44.705Z,10.20
2019-03-26T07:37:17.075Z,13.77
2019-03-26T07:40:04.077Z,17.40
2019-03-26T07:42:54.407Z,12.23
2019-03-26T07:45:30.118Z,11.13
2019-03-26T07:48:22.078Z,62.97
2019-03-26T07:50:59.156Z,11.60
2019-03-26T07:53:31.547Z,16.43
2019-03-26T07:56:03.769Z,42.03
2019-03-26T07:58:42.928Z,35.33
2019-03-26T08:01:24.906Z,12.47
2019-03-26T08:04:16.257Z,29.97
2019-03-26T08:06:51.489Z,12.13
2019-03-26T08:09:32.851Z,17.27
2019-03-26T08:12:22.053Z,18.30
2019-03-26T08:15:05.057Z,12.83
2019-03-26T08:17:45.284Z,12.73
2019-03-26T08:20:22.540Z,11.47
2019-03-26T08:22:54.500Z,13.03
2019-03-26T08:25:30.077Z,14.70
2019-03-26T08:28:04.909Z,7.77
2019-03-26T08:30:35.770Z,11.43
2019-03-26T08:33:08.025Z,12.40
2019-03-26T08:35:39.829Z,14.50
2019-03-26T08:38:13.369Z,14.40
2019-03-26T08:40:45.933Z,16.10
2019-03-26T08:43:26.373Z,14.03
2019-03-26T08:49:04.307Z,13.53
2019-03-26T08:51:36.261Z,12.70
2019-03-26T08:54:08.191Z,10.40
2019-03-26T08:56:40.671Z,12.47
2019-03-26T08:59:12.403Z,14.20
2019-03-26T09:01:44.272Z,13.33
2019-03-26T09:04:16.175Z,11.67
2019-03-26T09:06:48.263Z,9.87
2019-03-26T09:09:19.936Z,9.33
2019-03-26T09:11:51.522Z,9.30
2019-03-26T09:14:23.183Z,11.17
2019-03-26T09:16:54.704Z,12.97
2019-03-26T09:19:26.344Z,9.83
2019-03-26T09:21:57.951Z,11.07
2019-03-26T09:24:29.628Z,12.17
2019-03-26T09:27:01.730Z,10.37
2019-03-26T09:29:33.769Z,13.60
2019-03-26T09:32:05.927Z,11.83
2019-03-26T09:34:38.016Z,9.67
2019-03-26T09:37:10.485Z,10.93
2019-03-26T09:39:42.871Z,15.43
2019-03-26T09:42:15.510Z,6.40
2019-03-26T09:44:48.069Z,10.80
2019-03-26T09:47:20.648Z,12.47
2019-03-26T09:49:53.400Z,12.30
2019-03-26T09:52:26.518Z,16.07
2019-03-26T09:54:59.047Z,13.67
2019-03-26T09:57:31.248Z,10.47
2019-03-26T10:00:03.543Z,9.93
2019-03-26T10:02:35.816Z,11.70
2019-03-26T10:05:08.338Z,12.83
2019-03-26T10:07:40.504Z,13.13
2019-03-26T10:10:13.504Z,8.43
2019-03-26T10:12:46.094Z,9.20
2019-03-26T10:15:19.593Z,11.33
2019-03-26T10:17:51.815Z,8.93
2019-03-26T10:20:24.143Z,8.23
2019-03-26T10:22:56.854Z,15.00
2019-03-26T10:25:29.416Z,5.60
2019-03-26T10:28:03.303Z,5.30
2019-03-26T10:30:40.529Z,8.10
2019-03-26T10:33:13.253Z,8.70
2019-03-26T10:35:45.829Z,10.13
2019-03-26T10:38:18.473Z,8.77
2019-03-26T10:40:51.121Z,11.83
2019-03-26T10:43:23.681Z,7.30
2019-03-26T10:45:56.475Z,6.03
2019-03-26T10:48:46.739Z,6.37
2019-03-26T10:51:20.626Z,8.40
2019-03-26T10:53:53.266Z,4.23
2019-03-26T10:56:26.226Z,3.87
2019-03-26T10:59:04.044Z,3.93
2019-03-26T11:01:34.953Z,3.43
2019-03-26T11:04:07.970Z,1.10
2019-03-26T11:06:40.551Z,2.40
2019-03-26T11:09:21.343Z,1.90
2019-03-26T11:11:47.285Z,6.77
2019-03-26T11:14:19.582Z,3.03
2019-03-26T11:19:29.039Z,10.67
2019-03-26T11:22:26.817Z,2.57
2019-03-26T11:25:38.328Z,2.23
2019-03-26T11:28:16.000Z,2.17
2019-03-26T11:31:11.973Z,2.33
2019-03-26T11:38:01.636Z,8.87
2019-03-26T11:41:16.489Z,3.33
2019-03-26T11:44:13.077Z,3.17
2019-03-26T11:46:49.319Z,4.97
2019-03-26T11:49:54.911Z,2.67
2019-03-26T11:52:11.588Z,1.83
2019-03-26T11:54:44.318Z,1.60
2019-03-26T11:57:48.341Z,2.43
2019-03-26T12:03:40.861Z,3.63
2019-03-26T12:06:39.436Z,3.40
2019-03-26T12:10:19.146Z,2.00
2019-03-26T12:13:11.669Z,2.00
2019-03-26T12:15:50.791Z,4.97
2019-03-26T12:18:24.545Z,1.73
2019-03-26T12:20:58.647Z,1.37
2019-03-26T12:23:37.014Z,2.07
2019-03-26T12:27:21.791Z,4.47
2019-03-26T12:29:44.422Z,0.87
2019-03-26T12:32:13.886Z,1.47
2019-03-26T12:35:37.907Z,2.57
2019-03-26T12:38:42.703Z,2.63
2019-03-26T12:41:12.380Z,2.13
2019-03-26T12:43:49.987Z,3.13
2019-03-26T12:49:29.332Z,2.20
2019-03-26T12:52:15.521Z,1.77
2019-03-26T12:55:01.231Z,1.17
2019-03-26T12:57:47.410Z,0.87
2019-03-26T13:00:25.098Z,1.33
2019-03-26T13:03:03.495Z,1.30
2019-03-26T13:05:52.625Z,2.10
2019-03-26T13:08:34.700Z,4.07
2019-03-26T13:11:12.365Z,0.93
2019-03-26T13:13:48.291Z,9.43
2019-03-26T13:16:23.921Z,8.33
2019-03-26T13:19:01.631Z,3.30
2019-03-26T13:24:41.498Z,1.13
2019-03-26T13:27:14.710Z,1.23
2019-03-26T13:29:47.537Z,1.00
2019-03-26T13:32:20.002Z,1.00
2019-03-26T13:35:03.861Z,1.27
2019-03-26T13:37:36.375Z,1.97
2019-03-26T13:40:10.519Z,0.67
2019-03-26T13:42:42.677Z,2.53
2019-03-26T13:45:17.656Z,2.43
2019-03-26T13:47:50.390Z,3.17
2019-03-26T13:50:22.913Z,1.00
2019-03-26T13:52:58.781Z,1.60
2019-03-26T13:55:39.138Z,1.60
2019-03-26T13:58:26.037Z,1.70
2019-03-26T14:01:04.535Z,1.33
2019-03-26T14:03:38.874Z,2.00
2019-03-26T14:06:11.525Z,2.07
2019-03-26T14:08:47.133Z,1.87
2019-03-26T14:11:36.420Z,2.77
2019-03-26T14:14:09.911Z,4.00
2019-03-26T14:16:45.504Z,21.17
2019-03-26T14:19:20.605Z,5.97
2019-03-26T14:22:01.774Z,1.33
2019-03-26T14:24:33.996Z,0.97
2019-03-26T14:27:16.670Z,1.60
2019-03-26T14:29:46.836Z,4.00
2019-03-26T14:32:23.026Z,14.83
2019-03-26T14:35:01.185Z,5.37
2019-03-26T14:37:51.584Z,2.37
2019-03-26T14:40:21.003Z,3.53
2019-03-26T14:42:53.374Z,3.03
2019-03-26T14:45:25.927Z,2.33
2019-03-26T14:47:59.545Z,4.10
2019-03-26T14:50:36.136Z,2.93
2019-03-26T14:53:13.257Z,1.40
2019-03-26T14:55:50.141Z,0.93
2019-03-26T14:58:26.697Z,3.33
2019-03-26T15:01:11.559Z,1.30
2019-03-26T15:03:47.230Z,0.90
2019-03-26T15:06:26.580Z,0.73
2019-03-26T15:08:58.540Z,1.10
2019-03-26T15:11:32.255Z,4.53
2019-03-26T15:14:15.248Z,2.23
2019-03-26T15:16:55.752Z,1.60
2019-03-26T15:19:33.135Z,1.03
2019-03-26T15:23:07.111Z,1.73
2019-03-26T15:25:55.767Z,2.63
2019-03-26T15:28:39.915Z,2.57
2019-03-26T15:31:29.809Z,1.50
2019-03-26T15:34:11.246Z,7.30
2019-03-26T15:37:06.348Z,6.00
2019-03-26T15:39:59.656Z,1.73
2019-03-26T15:42:42.462Z,1.63
2019-03-26T15:45:16.740Z,6.27
2019-03-26T15:48:11.568Z,3.10
2019-03-26T15:51:07.473Z,4.50
2019-03-26T15:53:46.943Z,1.77
2019-03-26T15:56:23.817Z,0.53
2019-03-26T15:59:07.301Z,1.77
2019-03-26T16:02:32.115Z,0.70
2019-03-26T16:05:13.034Z,4.87
2019-03-26T16:07:50.945Z,3.20
2019-03-26T16:10:37.089Z,1.50
2019-03-26T16:13:11.435Z,1.90
2019-03-26T16:15:51.847Z,1.83
2019-03-26T16:18:23.579Z,2.23
2019-03-26T16:21:02.879Z,5.33
2019-03-26T16:23:36.953Z,2.70
2019-03-26T16:26:09.147Z,7.17
2019-03-26T16:28:41.363Z,3.33
2019-03-26T16:31:14.240Z,2.90
2019-03-26T16:33:46.657Z,6.30
2019-03-26T16:36:19.145Z,65.53
2019-03-26T16:38:51.664Z,5.77
2019-03-26T16:41:24.063Z,3.03
2019-03-26T16:43:56.131Z,2.47
2019-03-26T16:46:30.848Z,5.07
2019-03-26T16:49:07.441Z,2.03
2019-03-26T16:51:39.817Z,3.83
2019-03-26T16:54:15.499Z,9.03
2019-03-26T16:56:48.795Z,5.47
2019-03-26T16:59:22.326Z,6.20
2019-03-26T17:01:54.814Z,3.23
2019-03-26T17:04:27.425Z,6.50
2019-03-26T17:12:33.125Z,4.53
2019-03-26T17:15:05.156Z,2.60
2019-03-26T17:17:40.918Z,6.23
2019-03-26T17:20:23.866Z,4.07
2019-03-26T17:22:54.490Z,8.67
2019-03-26T17:25:27.047Z,15.40
2019-03-26T17:28:06.805Z,8.93
2019-03-26T17:30:39.016Z,11.27
2019-03-26T17:33:10.864Z,10.37
2019-03-26T17:35:42.652Z,21.47
2019-03-26T17:38:16.234Z,6.60
2019-03-26T17:40:48.748Z,9.47
2019-03-26T17:43:21.097Z,8.10
2019-03-26T17:45:53.366Z,5.43
2019-03-26T17:48:25.730Z,5.80
2019-03-26T17:50:58.839Z,9.37
2019-03-26T17:53:50.914Z,7.90
2019-03-26T17:56:58.865Z,3.67
2019-03-26T17:59:48.326Z,6.37
2019-03-26T18:02:07.348Z,6.27
2019-03-26T18:04:39.390Z,8.07
2019-03-26T18:07:11.892Z,8.93
2019-03-26T18:09:44.083Z,11.77
2019-03-26T18:12:15.869Z,10.27
2019-03-26T18:14:47.843Z,11.07
2019-03-26T18:17:19.530Z,11.63
2019-03-26T18:19:51.247Z,11.77
2019-03-26T18:22:23.142Z,10.43
2019-03-26T18:24:55.180Z,38.67
2019-03-26T18:27:40.626Z,13.67
2019-03-26T18:30:15.324Z,11.40
2019-03-26T18:32:47.787Z,8.97
2019-03-26T18:35:20.131Z,6.20
2019-03-26T18:37:52.529Z,6.53
2019-03-26T18:40:28.186Z,11.53
2019-03-26T18:43:03.696Z,8.30
2019-03-26T18:45:36.168Z,6.90
2019-03-26T18:48:08.889Z,6.17
2019-03-26T18:50:41.254Z,9.87
2019-03-26T18:53:21.574Z,8.60
2019-03-26T18:55:49.262Z,7.67
2019-03-26T18:58:21.567Z,7.67
2019-03-26T19:01:01.013Z,9.57
2019-03-26T19:03:33.948Z,10.43
2019-03-26T19:06:06.675Z,13.13
2019-03-26T19:08:41.257Z,13.23
2019-03-26T19:11:13.732Z,11.70
2019-03-26T19:13:46.190Z,9.90
2019-03-26T19:16:18.943Z,9.93
2019-03-26T19:18:51.311Z,11.47
2019-03-26T19:21:25.254Z,16.87
2019-03-26T19:24:04.050Z,17.53
2019-03-26T19:26:31.180Z,15.37
2019-03-26T19:29:11.904Z,16.43
2019-03-26T19:35:34.299Z,63.50
2019-03-26T19:39:37.736Z,47.40
2019-03-26T19:41:37.376Z,23.83
2019-03-26T19:44:18.982Z,28.33
2019-03-26T19:47:02.142Z,28.10
2019-03-26T19:49:41.553Z,32.80
2019-03-26T19:52:38.443Z,21.87
2019-03-26T19:55:39.292Z,29.90
2019-03-26T19:58:40.323Z,28.10
2019-03-26T20:01:00.326Z,17.73
2019-03-26T20:03:32.333Z,14.53
2019-03-26T20:06:13.526Z,15.90
2019-03-26T20:08:38.731Z,12.07
2019-03-26T20:11:10.944Z,15.60
2019-03-26T20:13:44.087Z,14.27
2019-03-26T20:16:15.865Z,12.27
2019-03-26T20:19:15.787Z,16.13
2019-03-26T20:21:49.959Z,20.67
2019-03-26T20:24:25.215Z,21.40
2019-03-26T20:26:57.522Z,23.40
2019-03-26T20:29:29.474Z,18.77
2019-03-26T20:32:01.700Z,22.93
2019-03-26T20:34:33.826Z,20.90
2019-03-26T20:37:06.073Z,22.57
2019-03-26T20:39:38.801Z,20.77
2019-03-26T20:42:11.332Z,21.50
2019-03-26T20:44:44.844Z,20.47
2019-03-26T20:47:17.113Z,24.90
2019-03-26T20:49:49.075Z,21.67
2019-03-26T20:52:21.135Z,18.70
2019-03-26T20:54:55.324Z,23.80
2019-03-26T20:57:27.918Z,18.50
2019-03-26T21:00:00.707Z,19.90
2019-03-26T21:02:37.267Z,19.63
2019-03-26T21:05:11.581Z,19.03
2019-03-26T21:07:44.306Z,22.00
2019-03-26T21:10:16.702Z,21.33
2019-03-26T21:12:48.894Z,29.00
2019-03-26T21:15:21.599Z,31.73
2019-03-26T21:17:54.024Z,25.83
2019-03-26T21:20:26.509Z,29.13
2019-03-26T21:22:58.622Z,31.63
2019-03-26T21:25:33.077Z,31.20
2019-03-26T21:28:05.131Z,23.47
2019-03-26T21:30:36.885Z,29.67
2019-03-26T21:33:49.925Z,27.13
2019-03-26T21:36:18.684Z,28.23
2019-03-26T21:38:50.371Z,32.93
2019-03-26T21:41:21.839Z,32.47
2019-03-26T21:44:03.682Z,29.50
2019-03-26T21:46:26.674Z,26.07
2019-03-26T21:48:59.053Z,26.13
2019-03-26T21:51:30.838Z,26.43
2019-03-26T21:54:02.823Z,28.23
2019-03-26T21:56:34.467Z,28.87
2019-03-26T21:59:06.226Z,27.57
2019-03-26T22:01:37.929Z,30.33
2019-03-26T22:04:09.701Z,22.03
2019-03-26T22:06:41.401Z,22.37
2019-03-26T22:09:13.041Z,21.50
2019-03-26T22:11:50.204Z,25.13
2019-03-26T22:14:18.690Z,22.30
2019-03-26T22:16:50.711Z,22.37
2019-03-26T22:19:28.553Z,26.23
2019-03-26T22:21:55.553Z,18.23
2019-03-26T22:24:27.043Z,17.40
2019-03-26T22:26:58.783Z,19.03
2019-03-26T22:29:30.310Z,14.50
2019-03-26T22:32:02.014Z,16.63
2019-03-26T22:34:33.514Z,14.43
2019-03-26T22:37:05.314Z,20.00
2019-03-26T22:39:37.023Z,22.17
2019-03-26T22:42:08.803Z,19.80
2019-03-26T22:44:40.353Z,19.73
2019-03-26T22:47:12.334Z,19.97
2019-03-26T22:49:43.970Z,20.73
2019-03-26T22:52:15.741Z,20.60
2019-03-26T22:54:48.269Z,21.90
2019-03-26T22:57:20.841Z,20.47
2019-03-26T22:59:52.691Z,21.67
2019-03-26T23:02:24.286Z,18.03
2019-03-26T23:04:55.800Z,17.93
2019-03-26T23:07:27.394Z,18.33
2019-03-26T23:09:58.888Z,26.33
2019-03-26T23:12:30.544Z,22.13
2019-03-26T23:15:02.294Z,21.37
2019-03-26T23:17:35.165Z,18.20
2019-03-26T23:20:07.059Z,19.97
2019-03-26T23:22:38.860Z,15.23
2019-03-26T23:25:10.555Z,19.70
2019-03-26T23:27:42.268Z,21.47
2019-03-26T23:30:15.739Z,23.93
2019-03-26T23:32:47.570Z,22.57
2019-03-26T23:35:19.250Z,23.30
2019-03-26T23:37:51.420Z,24.00
2019-03-26T23:40:22.937Z,26.70
2019-03-26T23:42:54.639Z,24.13
2019-03-26T23:45:26.127Z,24.93
2019-03-26T23:47:58.233Z,23.37
2019-03-26T23:50:29.797Z,19.00
2019-03-26T23:53:01.486Z,19.67
2019-03-26T23:55:32.998Z,13.93
2019-03-26T23:58:04.677Z,14.83
